createdAt,value
2019-03-13T00:00:38.180Z,89.30
2019-03-13T00:03:07.863Z,89.90
2019-03-13T00:05:36.709Z,90.40
2019-03-13T00:08:05.635Z,90.30
2019-03-13T00:10:34.470Z,89.40
2019-03-13T00:13:03.422Z,89.30
2019-03-13T00:15:32.435Z,89.60
2019-03-13T00:18:01.284Z,89.80
2019-03-13T00:20:30.129Z,89.60
2019-03-13T00:22:59.141Z,89.50
2019-03-13T00:25:28.003Z,89.60
2019-03-13T00:27:57.031Z,90.00
2019-03-13T00:30:26.037Z,90.00
2019-03-13T00:32:54.832Z,90.00
2019-03-13T00:35:23.875Z,89.80
2019-03-13T00:37:52.805Z,90.00
2019-03-13T00:40:21.665Z,90.10
2019-03-13T00:42:50.549Z,90.10
2019-03-13T00:45:19.484Z,90.30
2019-03-13T00:47:48.535Z,90.30
2019-03-13T00:50:26.023Z,90.20
2019-03-13T00:52:55.022Z,90.30
2019-03-13T00:55:24.043Z,90.20
2019-03-13T00:57:53.021Z,90.10
2019-03-13T01:00:40.525Z,90.00
2019-03-13T01:03:27.562Z,89.80
2019-03-13T01:06:03.901Z,90.30
2019-03-13T01:08:32.790Z,90.10
2019-03-13T01:11:01.623Z,90.00
2019-03-13T01:13:30.476Z,90.10
2019-03-13T01:15:59.364Z,90.20
2019-03-13T01:18:28.221Z,90.20
2019-03-13T01:20:57.128Z,90.50
2019-03-13T01:23:26.026Z,90.30
2019-03-13T01:25:54.928Z,90.30
2019-03-13T01:28:23.779Z,90.40
2019-03-13T01:31:10.436Z,89.30
2019-03-13T01:33:39.254Z,89.20
2019-03-13T01:36:08.131Z,90.00
2019-03-13T01:38:37.051Z,89.90
2019-03-13T01:41:05.925Z,89.80
2019-03-13T01:43:34.777Z,89.80
2019-03-13T01:46:03.682Z,89.90
2019-03-13T01:48:32.531Z,89.90
2019-03-13T01:51:01.383Z,89.60
2019-03-13T01:53:30.288Z,90.00
2019-03-13T01:55:59.145Z,89.20
2019-03-13T01:58:28.873Z,89.10
2019-03-13T02:00:57.845Z,88.80
2019-03-13T02:03:26.695Z,88.70
2019-03-13T02:05:55.536Z,88.90
2019-03-13T02:08:24.424Z,88.90
2019-03-13T02:10:53.268Z,88.80
2019-03-13T02:13:22.125Z,88.90
2019-03-13T02:15:51.574Z,88.80
2019-03-13T02:18:20.382Z,88.70
2019-03-13T02:20:49.250Z,88.80
2019-03-13T02:23:18.209Z,89.20
2019-03-13T02:25:47.046Z,89.40
2019-03-13T02:28:15.994Z,89.00
2019-03-13T02:30:44.912Z,89.10
2019-03-13T02:33:13.743Z,89.20
2019-03-13T02:35:42.581Z,89.60
2019-03-13T02:38:11.479Z,90.00
2019-03-13T02:40:40.329Z,90.20
2019-03-13T02:43:09.193Z,90.30
2019-03-13T02:45:38.114Z,90.20
2019-03-13T02:48:06.967Z,90.20
2019-03-13T02:50:35.832Z,90.10
2019-03-13T02:53:04.745Z,90.00
2019-03-13T02:55:33.616Z,90.10
2019-03-13T02:58:02.460Z,90.10
2019-03-13T03:00:46.115Z,90.10
2019-03-13T03:03:16.524Z,89.90
2019-03-13T03:05:45.367Z,89.30
2019-03-13T03:08:14.262Z,89.50
2019-03-13T03:10:43.303Z,88.40
2019-03-13T03:13:12.147Z,88.20
2019-03-13T03:15:41.055Z,88.30
2019-03-13T03:18:09.919Z,88.40
2019-03-13T03:20:38.783Z,88.70
2019-03-13T03:23:07.690Z,89.20
2019-03-13T03:25:36.641Z,89.00
2019-03-13T03:28:05.502Z,88.90
2019-03-13T03:30:34.423Z,89.00
2019-03-13T03:33:03.278Z,89.30
2019-03-13T03:35:33.287Z,89.40
2019-03-13T03:38:02.149Z,89.00
2019-03-13T03:40:31.064Z,89.00
2019-03-13T03:42:59.956Z,88.60
2019-03-13T03:45:28.879Z,88.60
2019-03-13T03:47:57.752Z,88.50
2019-03-13T03:50:26.674Z,88.50
2019-03-13T03:52:55.586Z,88.30
2019-03-13T03:55:24.428Z,88.40
2019-03-13T03:57:53.286Z,88.70
2019-03-13T04:00:22.285Z,88.90
2019-03-13T04:02:51.183Z,89.00
2019-03-13T04:05:20.227Z,89.10
2019-03-13T04:07:49.136Z,89.10
2019-03-13T04:10:17.995Z,89.20
2019-03-13T04:12:46.845Z,89.30
2019-03-13T04:15:16.653Z,89.00
2019-03-13T04:17:45.509Z,89.00
2019-03-13T04:20:18.623Z,89.00
2019-03-13T04:22:47.541Z,89.00
2019-03-13T04:25:27.938Z,88.50
2019-03-13T04:27:56.882Z,88.60
2019-03-13T04:30:25.715Z,88.60
2019-03-13T04:32:54.554Z,89.20
2019-03-13T04:35:23.445Z,89.00
2019-03-13T04:37:52.294Z,89.00
2019-03-13T04:40:21.134Z,88.90
2019-03-13T04:42:50.025Z,89.50
2019-03-13T04:45:18.860Z,88.90
2019-03-13T04:47:47.726Z,88.50
2019-03-13T04:50:16.763Z,88.50
2019-03-13T04:52:45.625Z,88.50
2019-03-13T04:55:16.486Z,88.40
2019-03-13T04:57:45.377Z,88.40
2019-03-13T05:00:16.874Z,88.70
2019-03-13T05:02:45.745Z,89.10
2019-03-13T05:05:37.128Z,89.00
2019-03-13T05:08:06.190Z,88.90
2019-03-13T05:10:35.145Z,88.80
2019-03-13T05:13:04.188Z,88.60
2019-03-13T05:15:33.060Z,88.60
2019-03-13T05:18:01.902Z,89.10
2019-03-13T05:20:30.805Z,87.90
2019-03-13T05:22:59.704Z,86.90
2019-03-13T05:25:28.514Z,86.60
2019-03-13T05:27:58.535Z,85.80
2019-03-13T05:30:27.393Z,85.90
2019-03-13T05:32:56.269Z,86.00
2019-03-13T05:35:25.130Z,86.50
2019-03-13T05:37:53.997Z,86.60
2019-03-13T05:40:22.858Z,86.70
2019-03-13T05:42:51.695Z,86.60
2019-03-13T05:45:20.528Z,86.50
2019-03-13T05:47:49.374Z,86.50
2019-03-13T05:50:18.291Z,85.60
2019-03-13T05:52:47.143Z,85.30
2019-03-13T05:55:16.007Z,85.40
2019-03-13T05:57:44.938Z,85.50
2019-03-13T06:00:16.055Z,86.00
2019-03-13T06:02:47.633Z,86.10
2019-03-13T06:05:15.497Z,86.10
2019-03-13T06:07:45.236Z,86.40
2019-03-13T06:10:17.183Z,86.40
2019-03-13T06:12:46.118Z,86.40
2019-03-13T06:15:16.074Z,86.30
2019-03-13T06:17:44.872Z,85.40
2019-03-13T06:20:18.477Z,85.10
2019-03-13T06:22:47.462Z,84.90
2019-03-13T06:25:16.320Z,84.20
2019-03-13T06:27:46.611Z,83.90
2019-03-13T06:30:21.955Z,83.60
2019-03-13T06:32:50.880Z,83.30
2019-03-13T06:35:19.725Z,83.10
2019-03-13T06:37:48.593Z,82.60
2019-03-13T06:40:18.872Z,82.70
2019-03-13T06:42:47.738Z,82.80
2019-03-13T06:45:17.002Z,82.80
2019-03-13T06:47:45.897Z,82.70
2019-03-13T06:50:23.454Z,83.30
2019-03-13T06:52:52.381Z,83.50
2019-03-13T06:55:21.341Z,82.50
2019-03-13T06:57:50.187Z,81.40
2019-03-13T07:00:27.680Z,80.90
2019-03-13T07:03:10.115Z,80.40
2019-03-13T07:05:46.631Z,80.40
2019-03-13T07:08:33.542Z,81.40
2019-03-13T07:11:04.856Z,81.20
2019-03-13T07:13:51.811Z,79.80
2019-03-13T07:16:28.204Z,79.90
2019-03-13T07:19:01.358Z,72.00
2019-03-13T07:21:31.777Z,60.20
2019-03-13T07:24:11.198Z,52.50
2019-03-13T07:26:41.633Z,47.40
2019-03-13T07:29:30.293Z,44.40
2019-03-13T07:32:03.522Z,44.10
2019-03-13T07:34:45.910Z,43.80
2019-03-13T07:37:32.775Z,43.40
2019-03-13T07:40:09.256Z,42.40
2019-03-13T07:42:42.767Z,41.70
2019-03-13T07:45:22.779Z,42.70
2019-03-13T07:48:09.550Z,43.00
2019-03-13T07:50:56.700Z,42.00
2019-03-13T07:53:39.349Z,40.50
2019-03-13T07:56:16.060Z,40.00
2019-03-13T07:58:52.436Z,41.40
2019-03-13T08:01:22.940Z,45.30
2019-03-13T08:03:56.371Z,50.40
2019-03-13T08:06:43.369Z,52.70
2019-03-13T08:09:13.770Z,53.80
2019-03-13T08:11:59.370Z,52.80
2019-03-13T08:14:45.165Z,54.20
2019-03-13T08:17:21.685Z,55.50
2019-03-13T08:20:10.123Z,56.50
2019-03-13T08:22:49.319Z,54.60
2019-03-13T08:25:36.154Z,49.50
2019-03-13T08:28:15.639Z,47.20
2019-03-13T08:30:46.069Z,43.00
2019-03-13T08:33:16.476Z,41.00
2019-03-13T08:35:59.194Z,39.90
2019-03-13T08:38:29.626Z,37.30
2019-03-13T08:41:08.892Z,34.60
2019-03-13T08:43:42.075Z,32.50
2019-03-13T08:46:12.517Z,30.10
2019-03-13T08:48:51.964Z,29.10
2019-03-13T08:51:28.665Z,28.30
2019-03-13T08:53:59.159Z,27.10
2019-03-13T08:56:32.283Z,27.20
2019-03-13T08:59:02.714Z,27.00
2019-03-13T09:01:35.929Z,25.90
2019-03-13T09:04:22.740Z,26.30
2019-03-13T09:06:56.173Z,26.80
2019-03-13T09:09:38.628Z,26.70
2019-03-13T09:12:25.314Z,26.30
2019-03-13T09:15:01.854Z,25.60
2019-03-13T09:17:35.279Z,25.90
2019-03-13T09:20:10.546Z,26.10
2019-03-13T09:22:41.094Z,25.60
2019-03-13T09:25:28.526Z,25.10
2019-03-13T09:28:14.230Z,24.10
2019-03-13T09:30:56.578Z,24.00
2019-03-13T09:33:27.020Z,24.50
2019-03-13T09:35:57.458Z,23.80
2019-03-13T09:38:40.239Z,24.20
2019-03-13T09:41:16.701Z,24.40
2019-03-13T09:43:47.430Z,24.80
2019-03-13T09:46:17.847Z,24.40
2019-03-13T09:48:48.282Z,25.30
2019-03-13T09:51:35.139Z,24.70
2019-03-13T09:54:11.547Z,24.60
2019-03-13T09:56:45.112Z,23.40
2019-03-13T09:59:15.559Z,24.00
2019-03-13T10:01:54.591Z,24.40
2019-03-13T10:04:36.736Z,24.10
2019-03-13T10:07:07.414Z,25.00
2019-03-13T10:09:37.842Z,24.50
2019-03-13T10:12:11.218Z,24.70
2019-03-13T10:14:47.968Z,25.10
2019-03-13T10:17:18.400Z,25.90
2019-03-13T10:19:54.347Z,27.00
2019-03-13T10:22:41.023Z,27.10
2019-03-13T10:25:29.836Z,27.60
2019-03-13T10:28:16.584Z,29.00
2019-03-13T10:30:47.027Z,30.30
2019-03-13T10:33:23.505Z,31.30
2019-03-13T10:36:09.349Z,31.50
2019-03-13T10:38:56.159Z,31.50
2019-03-13T10:41:32.751Z,31.70
2019-03-13T10:44:03.140Z,32.50
2019-03-13T10:46:42.205Z,32.30
2019-03-13T10:49:21.794Z,31.20
2019-03-13T10:51:58.131Z,32.00
2019-03-13T10:54:46.691Z,31.60
2019-03-13T10:57:19.893Z,31.50
2019-03-13T10:59:56.337Z,31.70
2019-03-13T11:02:32.583Z,31.80
2019-03-13T11:05:19.186Z,31.50
2019-03-13T11:07:58.931Z,30.80
2019-03-13T11:10:35.100Z,30.80
2019-03-13T11:13:05.547Z,30.80
2019-03-13T11:15:35.982Z,30.60
2019-03-13T11:18:12.179Z,30.00
2019-03-13T11:20:52.553Z,29.90
2019-03-13T11:23:23.027Z,29.70
2019-03-13T11:25:56.177Z,30.00
2019-03-13T11:28:29.137Z,29.80
2019-03-13T11:31:14.937Z,29.00
2019-03-13T11:33:48.125Z,29.30
2019-03-13T11:36:21.491Z,29.40
2019-03-13T11:39:07.124Z,29.10
2019-03-13T11:41:40.237Z,28.50
2019-03-13T11:44:16.650Z,28.90
2019-03-13T11:46:47.046Z,29.00
2019-03-13T11:49:20.209Z,29.40
2019-03-13T11:51:53.236Z,29.30
2019-03-13T11:54:33.063Z,29.20
2019-03-13T11:57:03.500Z,28.40
2019-03-13T11:59:36.414Z,29.40
2019-03-13T12:02:19.196Z,29.70
2019-03-13T12:04:58.939Z,29.90
2019-03-13T12:07:38.382Z,30.20
2019-03-13T12:10:23.580Z,29.80
2019-03-13T12:13:05.804Z,30.40
2019-03-13T12:15:36.250Z,29.00
2019-03-13T12:18:06.678Z,29.40
2019-03-13T12:20:37.093Z,29.30
2019-03-13T12:23:19.679Z,30.00
2019-03-13T12:25:55.867Z,29.80
2019-03-13T12:28:42.636Z,29.90
2019-03-13T12:31:14.157Z,29.70
2019-03-13T12:33:59.720Z,30.10
2019-03-13T12:36:42.236Z,30.20
2019-03-13T12:39:15.391Z,30.00
2019-03-13T12:41:54.526Z,29.60
2019-03-13T12:44:41.006Z,29.30
2019-03-13T12:47:13.907Z,28.90
2019-03-13T12:50:02.458Z,28.70
2019-03-13T12:52:32.863Z,28.70
2019-03-13T12:55:21.419Z,28.70
2019-03-13T12:57:51.821Z,28.90
2019-03-13T13:00:25.006Z,28.30
2019-03-13T13:02:58.427Z,29.10
2019-03-13T13:05:40.656Z,28.30
2019-03-13T13:08:27.114Z,28.40
2019-03-13T13:11:06.631Z,28.30
2019-03-13T13:13:53.366Z,28.50
2019-03-13T13:16:26.848Z,28.80
2019-03-13T13:18:55.682Z,28.70
2019-03-13T13:21:24.619Z,28.60
2019-03-13T13:23:53.516Z,28.40
2019-03-13T13:26:22.359Z,28.00
2019-03-13T13:28:52.142Z,28.20
2019-03-13T13:31:21.007Z,28.20
2019-03-13T13:33:49.841Z,28.30
2019-03-13T13:36:18.692Z,28.30
2019-03-13T13:38:47.600Z,28.50
2019-03-13T13:41:16.453Z,28.90
2019-03-13T13:43:45.292Z,29.10
2019-03-13T13:46:19.643Z,28.70
2019-03-13T13:48:48.489Z,28.50
2019-03-13T13:51:17.551Z,28.70
2019-03-13T13:53:46.441Z,28.60
2019-03-13T13:56:15.283Z,28.20
2019-03-13T13:58:44.133Z,28.20
2019-03-13T14:01:13.050Z,27.90
2019-03-13T14:03:41.895Z,27.50
2019-03-13T14:06:10.748Z,26.40
2019-03-13T14:08:39.632Z,26.40
2019-03-13T14:11:08.442Z,26.10
2019-03-13T14:13:37.314Z,26.70
2019-03-13T14:16:06.389Z,27.10
2019-03-13T14:18:35.226Z,26.90
2019-03-13T14:21:04.084Z,27.10
2019-03-13T14:23:33.002Z,26.90
2019-03-13T14:26:01.854Z,27.00
2019-03-13T14:28:30.695Z,27.40
2019-03-13T14:30:59.590Z,27.20
2019-03-13T14:33:28.422Z,26.80
2019-03-13T14:35:57.282Z,26.80
2019-03-13T14:38:26.187Z,26.90
2019-03-13T14:40:55.029Z,27.10
2019-03-13T14:43:23.850Z,27.00
2019-03-13T14:45:52.758Z,27.30
2019-03-13T14:48:21.690Z,27.00
2019-03-13T14:50:50.529Z,26.90
2019-03-13T14:53:19.421Z,26.80
2019-03-13T14:55:48.278Z,26.90
2019-03-13T14:58:17.127Z,27.30
2019-03-13T15:00:46.045Z,27.00
2019-03-13T15:03:14.888Z,27.20
2019-03-13T15:05:43.737Z,27.70
2019-03-13T15:08:12.740Z,27.40
2019-03-13T15:10:41.596Z,27.20
2019-03-13T15:13:10.459Z,27.60
2019-03-13T15:15:39.351Z,27.00
2019-03-13T15:18:08.195Z,26.80
2019-03-13T15:20:37.140Z,26.90
2019-03-13T15:23:07.505Z,27.10
2019-03-13T15:25:36.679Z,27.10
2019-03-13T15:28:06.362Z,27.30
2019-03-13T15:30:35.288Z,27.40
2019-03-13T15:33:04.139Z,27.20
2019-03-13T15:35:32.990Z,27.80
2019-03-13T15:38:01.873Z,29.30
2019-03-13T15:40:30.723Z,26.80
2019-03-13T15:42:59.584Z,26.90
2019-03-13T15:45:33.433Z,30.00
2019-03-13T15:48:02.282Z,26.70
2019-03-13T15:50:31.119Z,25.60
2019-03-13T15:53:00.044Z,25.30
2019-03-13T15:55:29.012Z,26.60
2019-03-13T15:57:57.877Z,27.60
2019-03-13T16:00:27.990Z,27.50
2019-03-13T16:02:56.809Z,27.30
2019-03-13T16:05:25.671Z,28.10
2019-03-13T16:07:54.562Z,28.50
2019-03-13T16:10:23.512Z,28.90
2019-03-13T16:12:53.933Z,29.30
2019-03-13T16:15:28.607Z,29.40
2019-03-13T16:17:57.460Z,29.70
2019-03-13T16:20:26.356Z,29.80
2019-03-13T16:22:59.481Z,31.90
2019-03-13T16:25:28.516Z,31.30
2019-03-13T16:27:57.384Z,32.00
2019-03-13T16:30:28.894Z,31.90
2019-03-13T16:32:57.749Z,32.00
2019-03-13T16:35:26.720Z,31.30
2019-03-13T16:37:55.620Z,31.40
2019-03-13T16:40:24.486Z,31.90
2019-03-13T16:42:53.352Z,33.20
2019-03-13T16:45:22.958Z,33.80
2019-03-13T16:47:52.314Z,34.00
2019-03-13T16:50:28.907Z,34.40
2019-03-13T16:52:57.745Z,35.50
2019-03-13T16:55:26.607Z,36.80
2019-03-13T16:57:55.511Z,36.90
2019-03-13T17:00:26.065Z,37.90
2019-03-13T17:02:55.335Z,38.60
2019-03-13T17:05:24.243Z,38.70
2019-03-13T17:07:53.091Z,39.00
2019-03-13T17:10:23.256Z,39.60
2019-03-13T17:12:52.270Z,39.70
2019-03-13T17:15:25.560Z,40.50
2019-03-13T17:17:54.820Z,40.80
2019-03-13T17:20:35.227Z,40.90
2019-03-13T17:23:04.073Z,41.40
2019-03-13T17:25:32.928Z,41.30
2019-03-13T17:28:01.940Z,41.50
2019-03-13T17:30:31.782Z,42.10
2019-03-13T17:33:00.843Z,42.50
2019-03-13T17:35:29.858Z,42.70
2019-03-13T17:37:58.708Z,43.10
2019-03-13T17:40:31.849Z,45.20
2019-03-13T17:43:00.743Z,45.20
2019-03-13T17:45:29.620Z,45.90
2019-03-13T17:47:58.480Z,46.30
2019-03-13T17:50:28.348Z,46.40
2019-03-13T17:52:57.412Z,47.20
2019-03-13T17:55:27.261Z,47.50
2019-03-13T17:57:56.172Z,47.30
2019-03-13T18:00:29.058Z,47.20
2019-03-13T18:02:58.006Z,48.10
2019-03-13T18:05:26.937Z,49.20
2019-03-13T18:07:55.787Z,48.00
2019-03-13T18:10:24.642Z,49.80
2019-03-13T18:12:53.898Z,51.20
2019-03-13T18:15:22.742Z,49.20
2019-03-13T18:17:51.596Z,48.50
2019-03-13T18:20:22.562Z,49.10
2019-03-13T18:22:51.423Z,49.60
2019-03-13T18:25:20.265Z,50.30
2019-03-13T18:27:49.195Z,51.30
2019-03-13T18:30:20.036Z,51.90
2019-03-13T18:32:48.866Z,51.90
2019-03-13T18:35:18.513Z,51.50
2019-03-13T18:37:47.467Z,51.70
2019-03-13T18:40:18.067Z,52.60
2019-03-13T18:42:47.036Z,53.80
2019-03-13T18:45:30.182Z,54.60
2019-03-13T18:47:59.272Z,54.80
2019-03-13T18:50:28.434Z,55.00
2019-03-13T18:52:57.325Z,57.60
2019-03-13T18:55:27.962Z,58.30
2019-03-13T18:57:56.789Z,58.60
2019-03-13T19:00:31.759Z,58.30
2019-03-13T19:03:00.836Z,60.10
2019-03-13T19:05:31.170Z,58.80
2019-03-13T19:08:00.027Z,59.00
2019-03-13T19:10:30.684Z,59.20
2019-03-13T19:12:59.923Z,60.00
2019-03-13T19:15:29.768Z,62.00
2019-03-13T19:18:00.795Z,62.20
2019-03-13T19:20:30.150Z,62.20
2019-03-13T19:22:58.991Z,61.70
2019-03-13T19:25:27.876Z,62.70
2019-03-13T19:27:56.730Z,63.10
2019-03-13T19:30:33.720Z,62.40
2019-03-13T19:33:02.661Z,62.10
2019-03-13T19:35:31.524Z,63.30
2019-03-13T19:38:06.420Z,64.60
2019-03-13T19:40:35.397Z,64.60
2019-03-13T19:43:04.592Z,65.00
2019-03-13T19:45:44.994Z,66.50
2019-03-13T19:48:13.848Z,65.60
2019-03-13T19:50:42.690Z,66.00
2019-03-13T19:53:11.589Z,66.10
2019-03-13T19:55:40.427Z,66.90
2019-03-13T19:58:09.385Z,67.10
2019-03-13T20:00:38.384Z,67.60
2019-03-13T20:03:12.586Z,67.40
2019-03-13T20:05:46.031Z,67.10
2019-03-13T20:08:13.804Z,67.00
2019-03-13T20:10:42.587Z,68.50
2019-03-13T20:13:11.457Z,67.80
2019-03-13T20:15:40.345Z,67.80
2019-03-13T20:18:09.293Z,68.00
2019-03-13T20:20:38.152Z,67.90
2019-03-13T20:23:09.324Z,67.90
2019-03-13T20:25:38.161Z,67.90
2019-03-13T20:28:07.012Z,67.80
2019-03-13T20:30:36.146Z,67.40
2019-03-13T20:33:05.334Z,68.40
2019-03-13T20:35:36.909Z,68.90
2019-03-13T20:38:04.922Z,68.80
2019-03-13T20:40:33.806Z,69.10
2019-03-13T20:43:03.067Z,69.50
2019-03-13T20:45:32.219Z,69.70
2019-03-13T20:48:01.079Z,69.90
2019-03-13T20:50:37.452Z,70.00
2019-03-13T20:53:01.103Z,70.00
2019-03-13T20:55:29.944Z,70.10
2019-03-13T20:57:58.899Z,69.50
2019-03-13T21:00:28.735Z,69.50
2019-03-13T21:02:58.293Z,69.60
2019-03-13T21:05:27.142Z,69.60
2019-03-13T21:07:56.060Z,69.60
2019-03-13T21:10:24.919Z,69.50
2019-03-13T21:12:53.779Z,69.10
2019-03-13T21:15:27.598Z,69.60
2019-03-13T21:17:56.629Z,70.80
2019-03-13T21:20:25.462Z,70.00
2019-03-13T21:22:54.498Z,69.20
2019-03-13T21:25:27.105Z,68.40
2019-03-13T21:27:56.066Z,68.70
2019-03-13T21:30:29.028Z,68.80
2019-03-13T21:32:58.362Z,69.00
2019-03-13T21:35:27.336Z,69.90
2019-03-13T21:37:56.688Z,70.10
2019-03-13T21:40:27.560Z,70.40
2019-03-13T21:42:56.532Z,70.10
2019-03-13T21:45:25.822Z,70.70
2019-03-13T21:47:54.675Z,69.30
2019-03-13T21:50:23.820Z,69.20
2019-03-13T21:52:52.865Z,69.20
2019-03-13T21:55:21.710Z,68.70
2019-03-13T21:57:52.225Z,68.60
2019-03-13T22:00:27.828Z,69.00
2019-03-13T22:02:56.788Z,69.10
2019-03-13T22:05:27.221Z,69.00
2019-03-13T22:07:56.156Z,70.00
2019-03-13T22:10:25.146Z,70.70
2019-03-13T22:12:53.997Z,70.30
2019-03-13T22:15:24.103Z,70.40
2019-03-13T22:17:52.984Z,70.10
2019-03-13T22:20:21.799Z,69.80
2019-03-13T22:22:50.788Z,69.80
2019-03-13T22:25:20.261Z,70.40
2019-03-13T22:27:49.315Z,71.40
2019-03-13T22:30:28.586Z,71.70
2019-03-13T22:32:55.970Z,71.80
2019-03-13T22:35:24.929Z,72.00
2019-03-13T22:37:53.811Z,72.30
2019-03-13T22:40:22.667Z,72.80
2019-03-13T22:42:51.534Z,73.10
2019-03-13T22:45:22.194Z,73.20
2019-03-13T22:47:51.067Z,73.20
2019-03-13T22:50:21.999Z,73.40
2019-03-13T22:52:50.900Z,73.20
2019-03-13T22:55:19.838Z,73.10
2019-03-13T22:57:48.782Z,73.70
2019-03-13T23:00:47.537Z,74.30
2019-03-13T23:03:17.191Z,74.50
2019-03-13T23:05:46.056Z,74.20
2019-03-13T23:08:14.976Z,74.20
2019-03-13T23:10:43.817Z,74.10
2019-03-13T23:13:12.769Z,74.10
2019-03-13T23:15:41.672Z,74.30
2019-03-13T23:18:10.586Z,74.70
2019-03-13T23:20:39.550Z,75.40
2019-03-13T23:23:08.430Z,75.70
2019-03-13T23:25:37.300Z,75.90
2019-03-13T23:28:06.338Z,75.40
2019-03-13T23:30:35.258Z,74.80
2019-03-13T23:33:04.132Z,74.90
2019-03-13T23:35:32.993Z,75.30
2019-03-13T23:38:01.885Z,75.90
2019-03-13T23:40:30.737Z,76.40
2019-03-13T23:42:59.589Z,76.80
2019-03-13T23:45:28.484Z,77.10
2019-03-13T23:47:58.240Z,77.20
2019-03-13T23:50:27.099Z,77.10
2019-03-13T23:52:56.015Z,76.60
2019-03-13T23:55:24.873Z,76.90
2019-03-13T23:57:53.739Z,77.00
